createdAt,value
2023-02-11T00:01:47.593Z,36.12
2023-02-11T00:04:14.108Z,35.97
2023-02-11T00:06:40.617Z,36.51
2023-02-11T00:09:07.373Z,36.11
2023-02-11T00:11:34.533Z,36.71
2023-02-11T00:14:04.247Z,35.54
2023-02-11T00:16:31.657Z,36.56
2023-02-11T00:19:03.438Z,35.98
2023-02-11T00:21:30.105Z,35.49
2023-02-11T00:23:57.011Z,35.53
2023-02-11T00:26:26.877Z,35.05
2023-02-11T00:28:53.877Z,36.67
2023-02-11T00:31:22.988Z,36.76
2023-02-11T00:33:50.081Z,35.33
2023-02-11T00:36:20.763Z,36.19
2023-02-11T00:38:49.524Z,36.59
2023-02-11T00:41:17.320Z,35.65
2023-02-11T00:43:44.673Z,34.96
2023-02-11T00:46:11.877Z,36.59
2023-02-11T00:48:38.466Z,36.12
2023-02-11T00:51:05.277Z,36.49
2023-02-11T00:53:32.976Z,35.69
2023-02-11T00:55:59.525Z,35.82
2023-02-11T00:58:26.104Z,36.14
2023-02-11T01:00:54.301Z,34.98
2023-02-11T01:03:20.848Z,35.75
2023-02-11T01:05:47.545Z,36.09
2023-02-11T01:08:14.292Z,35.49
2023-02-11T01:10:40.816Z,35.47
2023-02-11T01:13:07.331Z,35.37
2023-02-11T01:15:33.881Z,35.43
2023-02-11T01:18:00.370Z,35.10
2023-02-11T01:20:30.603Z,34.57
2023-02-11T01:22:57.063Z,35.71
2023-02-11T01:25:23.582Z,34.19
2023-02-11T01:27:50.047Z,34.43
2023-02-11T01:30:16.557Z,34.25
2023-02-11T01:32:43.056Z,34.80
2023-02-11T01:35:09.702Z,33.25
2023-02-11T01:37:36.822Z,33.40
2023-02-11T01:40:06.843Z,33.35
2023-02-11T01:42:33.785Z,33.00
2023-02-11T01:45:21.811Z,32.55
2023-02-11T01:47:48.300Z,33.51
2023-02-11T01:50:14.957Z,32.69
2023-02-11T01:52:42.194Z,33.05
2023-02-11T01:55:12.562Z,33.39
2023-02-11T01:57:45.538Z,33.19
2023-02-11T02:00:35.066Z,33.33
2023-02-11T02:03:19.643Z,33.34
2023-02-11T02:06:06.203Z,33.33
2023-02-11T02:08:53.137Z,32.71
2023-02-11T02:11:19.744Z,33.86
2023-02-11T02:13:47.332Z,34.33
2023-02-11T02:16:17.774Z,34.38
2023-02-11T02:19:16.478Z,34.80
2023-02-11T02:22:04.329Z,35.54
2023-02-11T02:24:50.487Z,35.01
2023-02-11T02:27:55.156Z,35.15
2023-02-11T02:30:36.599Z,34.89
2023-02-11T02:33:24.217Z,34.88
2023-02-11T02:35:58.339Z,34.71
2023-02-11T02:38:33.842Z,35.75
2023-02-11T02:41:07.206Z,35.51
2023-02-11T02:43:36.925Z,34.85
2023-02-11T02:46:31.040Z,35.21
2023-02-11T02:48:58.358Z,34.14
2023-02-11T02:51:42.465Z,34.27
2023-02-11T02:54:11.801Z,35.59
2023-02-11T02:56:50.648Z,35.06
2023-02-11T02:59:41.642Z,36.22
2023-02-11T03:02:15.050Z,35.90
2023-02-11T03:05:01.672Z,35.28
2023-02-11T03:07:48.469Z,35.29
2023-02-11T03:10:35.130Z,35.18
2023-02-11T03:13:04.486Z,35.10
2023-02-11T03:15:37.943Z,36.01
2023-02-11T03:18:09.465Z,37.04
2023-02-11T03:20:38.869Z,36.33
2023-02-11T03:23:18.829Z,37.18
2023-02-11T03:25:59.668Z,37.31
2023-02-11T03:28:34.328Z,36.71
2023-02-11T03:31:19.105Z,37.05
2023-02-11T03:34:03.592Z,37.89
2023-02-11T03:36:44.245Z,36.31
2023-02-11T03:39:16.163Z,36.52
2023-02-11T03:41:47.289Z,36.77
2023-02-11T03:44:16.793Z,36.61
2023-02-11T03:46:50.371Z,36.82
2023-02-11T03:49:21.740Z,37.60
2023-02-11T03:51:52.885Z,37.29
2023-02-11T03:54:27.208Z,37.56
2023-02-11T03:56:58.742Z,36.03
2023-02-11T03:59:25.937Z,36.26
2023-02-11T04:01:52.948Z,36.07
2023-02-11T04:04:19.549Z,36.27
2023-02-11T04:06:46.054Z,35.88
2023-02-11T04:09:14.090Z,35.68
2023-02-11T04:11:40.613Z,36.23
2023-02-11T04:14:27.087Z,35.93
2023-02-11T04:16:53.565Z,35.78
2023-02-11T04:19:20.096Z,35.23
2023-02-11T04:21:47.204Z,35.48
2023-02-11T04:24:13.726Z,35.11
2023-02-11T04:26:40.200Z,34.82
2023-02-11T04:29:06.697Z,35.57
2023-02-11T04:31:33.197Z,35.35
2023-02-11T04:33:59.789Z,34.63
2023-02-11T04:36:26.320Z,33.49
2023-02-11T04:38:52.788Z,34.56
2023-02-11T04:41:19.279Z,34.64
2023-02-11T04:43:45.754Z,34.46
2023-02-11T04:46:12.293Z,34.46
2023-02-11T04:48:38.846Z,34.49
2023-02-11T04:51:05.447Z,33.03
2023-02-11T04:53:32.065Z,32.91
2023-02-11T04:55:58.553Z,33.27
2023-02-11T04:58:25.046Z,32.65
2023-02-11T05:00:51.528Z,32.24
2023-02-11T05:03:18.285Z,32.49
2023-02-11T05:05:44.815Z,33.06
2023-02-11T05:08:11.391Z,32.96
2023-02-11T05:10:37.985Z,32.04
2023-02-11T05:13:05.104Z,32.01
2023-02-11T05:15:31.588Z,32.30
2023-02-11T05:17:58.073Z,31.73
2023-02-11T05:20:24.597Z,32.17
2023-02-11T05:22:51.072Z,31.94
2023-02-11T05:25:17.673Z,32.02
2023-02-11T05:27:44.141Z,32.47
2023-02-11T05:30:11.268Z,31.20
2023-02-11T05:32:37.919Z,31.86
2023-02-11T05:35:04.879Z,32.01
2023-02-11T05:37:31.368Z,31.52
2023-02-11T05:39:57.907Z,32.13
2023-02-11T05:42:24.451Z,31.05
2023-02-11T05:44:50.938Z,31.73
2023-02-11T05:47:17.406Z,32.12
2023-02-11T05:49:43.885Z,32.59
2023-02-11T05:52:10.392Z,31.81
2023-02-11T05:54:36.892Z,31.24
2023-02-11T05:57:03.465Z,31.65
2023-02-11T05:59:29.994Z,31.24
2023-02-11T06:01:56.480Z,31.88
2023-02-11T06:04:22.976Z,30.89
2023-02-11T06:06:49.461Z,31.12
2023-02-11T06:09:16.137Z,31.18
2023-02-11T06:11:42.594Z,30.80
2023-02-11T06:14:09.041Z,30.99
2023-02-11T06:16:35.546Z,30.42
2023-02-11T06:19:02.226Z,30.78
2023-02-11T06:21:42.513Z,30.32
2023-02-11T06:24:10.609Z,30.19
2023-02-11T06:26:37.124Z,30.30
2023-02-11T06:29:03.603Z,29.92
2023-02-11T06:31:30.384Z,29.38
2023-02-11T06:33:56.959Z,29.91
2023-02-11T06:36:23.442Z,29.17
2023-02-11T06:38:50.813Z,29.14
2023-02-11T06:41:19.031Z,28.78
2023-02-11T06:43:46.253Z,28.69
2023-02-11T06:46:13.344Z,28.84
2023-02-11T06:48:39.878Z,28.22
2023-02-11T06:51:11.762Z,28.79
2023-02-11T06:53:40.869Z,28.16
2023-02-11T06:56:09.979Z,28.10
2023-02-11T06:58:37.124Z,27.69
2023-02-11T07:01:09.377Z,28.34
2023-02-11T07:03:38.153Z,28.17
2023-02-11T07:06:06.347Z,28.80
2023-02-11T07:08:34.353Z,28.51
2023-02-11T07:11:01.363Z,28.78
2023-02-11T07:13:28.011Z,28.34
2023-02-11T07:15:54.542Z,27.95
2023-02-11T07:18:21.174Z,28.53
2023-02-11T07:20:47.701Z,27.73
2023-02-11T07:23:14.172Z,27.52
2023-02-11T07:25:40.642Z,28.58
2023-02-11T07:28:07.273Z,28.61
2023-02-11T07:30:33.779Z,28.77
2023-02-11T07:33:00.272Z,28.77
2023-02-11T07:35:26.753Z,31.44
2023-02-11T07:37:53.247Z,31.84
2023-02-11T07:40:19.843Z,31.24
2023-02-11T07:42:46.347Z,31.10
2023-02-11T07:45:14.803Z,30.62
2023-02-11T07:47:41.278Z,30.61
2023-02-11T07:50:07.915Z,30.84
2023-02-11T07:52:34.454Z,31.65
2023-02-11T07:55:02.656Z,30.18
2023-02-11T07:57:31.040Z,30.33
2023-02-11T07:59:57.513Z,30.72
2023-02-11T08:02:24.127Z,30.86
2023-02-11T08:04:50.691Z,30.90
2023-02-11T08:07:18.177Z,31.01
2023-02-11T08:09:44.685Z,33.11
2023-02-11T08:12:11.340Z,33.52
2023-02-11T08:14:37.949Z,33.20
2023-02-11T08:17:04.750Z,34.24
2023-02-11T08:19:33.499Z,33.83
2023-02-11T08:22:01.601Z,34.08
2023-02-11T08:24:28.095Z,34.57
2023-02-11T08:26:54.577Z,36.03
2023-02-11T08:29:21.097Z,37.24
2023-02-11T08:31:48.261Z,36.91
2023-02-11T08:34:15.665Z,37.75
2023-02-11T08:36:42.904Z,38.76
2023-02-11T08:39:19.676Z,40.46
2023-02-11T08:41:50.025Z,41.06
2023-02-11T08:44:18.387Z,42.37
2023-02-11T08:46:44.915Z,42.46
2023-02-11T08:49:11.539Z,42.86
2023-02-11T08:51:38.153Z,43.29
2023-02-11T08:54:04.693Z,45.54
2023-02-11T08:56:31.198Z,45.39
2023-02-11T08:58:57.681Z,45.53
2023-02-11T09:01:27.926Z,46.80
2023-02-11T09:03:55.304Z,45.97
2023-02-11T09:06:22.973Z,47.62
2023-02-11T09:08:51.877Z,46.81
2023-02-11T09:11:20.982Z,45.71
2023-02-11T09:13:47.703Z,47.50
2023-02-11T09:16:24.511Z,46.97
2023-02-11T09:18:51.165Z,51.77
2023-02-11T09:21:19.103Z,49.08
2023-02-11T09:23:46.797Z,49.79
2023-02-11T09:26:17.379Z,46.30
2023-02-11T09:28:44.133Z,45.92
2023-02-11T09:31:13.420Z,46.17
2023-02-11T09:33:42.055Z,46.39
2023-02-11T09:36:08.952Z,45.90
2023-02-11T09:38:35.476Z,45.13
2023-02-11T09:41:02.521Z,46.07
2023-02-11T09:43:38.722Z,45.04
2023-02-11T09:46:08.005Z,45.96
2023-02-11T09:48:41.417Z,48.30
2023-02-11T09:51:20.484Z,45.05
2023-02-11T09:54:00.096Z,44.61
2023-02-11T09:56:28.197Z,45.65
2023-02-11T09:58:54.894Z,45.32
2023-02-11T10:01:50.053Z,45.13
2023-02-11T10:04:51.322Z,45.22
2023-02-11T10:07:31.431Z,44.62
2023-02-11T10:10:33.368Z,44.60
2023-02-11T10:13:22.999Z,45.13
2023-02-11T10:16:14.745Z,44.88
2023-02-11T10:19:19.173Z,46.78
2023-02-11T10:21:59.597Z,45.65
2023-02-11T10:24:26.693Z,46.64
2023-02-11T10:26:53.144Z,46.27
2023-02-11T10:29:55.097Z,45.75
2023-02-11T10:32:49.296Z,46.78
2023-02-11T10:35:18.736Z,47.48
2023-02-11T10:37:45.790Z,47.25
2023-02-11T10:40:15.331Z,46.92
2023-02-11T10:42:49.380Z,47.97
2023-02-11T10:45:22.582Z,47.31
2023-02-11T10:47:49.095Z,47.62
2023-02-11T10:50:26.933Z,47.99
2023-02-11T10:53:12.487Z,48.26
2023-02-11T10:55:39.281Z,48.58
2023-02-11T10:58:05.813Z,48.07
2023-02-11T11:00:36.689Z,49.41
2023-02-11T11:03:25.320Z,48.29
2023-02-11T11:06:01.836Z,47.70
2023-02-11T11:08:47.487Z,47.17
2023-02-11T11:11:21.054Z,48.14
2023-02-11T11:13:53.182Z,46.85
2023-02-11T11:16:28.652Z,47.97
2023-02-11T11:19:07.435Z,47.43
2023-02-11T11:21:41.002Z,48.31
2023-02-11T11:24:19.984Z,47.03
2023-02-11T11:26:51.161Z,48.12
2023-02-11T11:29:40.237Z,48.77
2023-02-11T11:32:20.528Z,47.67
2023-02-11T11:34:56.492Z,47.16
2023-02-11T11:37:27.629Z,47.12
2023-02-11T11:40:14.844Z,46.85
2023-02-11T11:42:41.628Z,47.32
2023-02-11T11:45:17.127Z,47.43
2023-02-11T11:47:54.001Z,46.82
2023-02-11T11:50:30.499Z,47.27
2023-02-11T11:53:09.445Z,45.96
2023-02-11T11:55:45.270Z,47.19
2023-02-11T11:58:22.304Z,47.28
2023-02-11T12:01:14.648Z,48.02
2023-02-11T12:03:50.164Z,47.59
2023-02-11T12:06:37.081Z,48.49
2023-02-11T12:09:39.354Z,48.12
2023-02-11T12:12:21.169Z,48.02
2023-02-11T12:15:12.220Z,47.48
2023-02-11T12:17:52.141Z,47.70
2023-02-11T12:20:53.385Z,47.10
2023-02-11T12:23:31.757Z,47.78
2023-02-11T12:26:19.379Z,47.55
2023-02-11T12:29:23.174Z,47.07
2023-02-11T12:32:04.920Z,46.57
2023-02-11T12:34:57.702Z,45.83
2023-02-11T12:37:47.755Z,46.87
2023-02-11T12:40:26.414Z,47.18
2023-02-11T12:43:11.448Z,46.52
2023-02-11T12:46:13.747Z,46.50
2023-02-11T12:49:05.400Z,46.00
2023-02-11T12:51:50.721Z,45.94
2023-02-11T12:54:44.532Z,46.16
2023-02-11T12:57:28.221Z,46.40
2023-02-11T13:00:07.506Z,45.69
2023-02-11T13:02:40.049Z,45.80
2023-02-11T13:05:38.872Z,45.06
2023-02-11T13:08:14.347Z,45.58
2023-02-11T13:10:47.140Z,45.41
2023-02-11T13:13:29.792Z,43.82
2023-02-11T13:16:17.005Z,44.10
2023-02-11T13:18:56.017Z,43.31
2023-02-11T13:21:29.834Z,42.78
2023-02-11T13:24:19.151Z,42.97
2023-02-11T13:27:13.560Z,41.72
2023-02-11T13:30:17.665Z,42.44
2023-02-11T13:32:55.910Z,41.33
2023-02-11T13:35:43.790Z,42.61
2023-02-11T13:38:29.307Z,43.25
2023-02-11T13:41:16.509Z,43.63
2023-02-11T13:43:44.418Z,42.87
2023-02-11T13:46:13.681Z,41.77
2023-02-11T13:48:49.742Z,41.61
2023-02-11T13:51:34.388Z,41.42
2023-02-11T13:54:02.622Z,41.21
2023-02-11T13:56:34.351Z,41.64
2023-02-11T13:59:04.712Z,42.09
2023-02-11T14:01:49.272Z,40.31
2023-02-11T14:04:25.603Z,41.33
2023-02-11T14:07:21.089Z,40.63
2023-02-11T14:09:47.581Z,40.00
2023-02-11T14:12:31.091Z,41.07
2023-02-11T14:15:02.979Z,39.97
2023-02-11T14:17:35.313Z,38.70
2023-02-11T14:20:23.637Z,39.73
2023-02-11T14:22:52.936Z,39.40
2023-02-11T14:25:25.176Z,38.15
2023-02-11T14:28:00.973Z,37.78
2023-02-11T14:30:45.735Z,37.52
2023-02-11T14:33:31.141Z,37.47
2023-02-11T14:36:24.046Z,38.53
2023-02-11T14:39:21.404Z,37.64
2023-02-11T14:41:49.865Z,37.39
2023-02-11T14:44:30.093Z,36.56
2023-02-11T14:47:00.013Z,36.75
2023-02-11T14:49:26.461Z,36.60
2023-02-11T14:52:03.759Z,37.26
2023-02-11T14:54:31.023Z,37.50
2023-02-11T14:57:20.204Z,37.61
2023-02-11T14:59:59.704Z,37.02
2023-02-11T15:02:32.996Z,37.49
2023-02-11T15:05:21.643Z,37.11
2023-02-11T15:07:52.456Z,37.60
2023-02-11T15:10:30.599Z,38.08
2023-02-11T15:12:59.798Z,38.77
2023-02-11T15:15:28.221Z,40.04
2023-02-11T15:18:00.978Z,39.04
2023-02-11T15:20:32.098Z,38.99
2023-02-11T15:23:08.640Z,38.17
2023-02-11T15:25:42.726Z,39.34
2023-02-11T15:28:22.690Z,38.94
2023-02-11T15:31:00.156Z,39.76
2023-02-11T15:33:26.872Z,39.60
2023-02-11T15:35:53.481Z,39.64
2023-02-11T15:38:20.546Z,39.91
2023-02-11T15:41:02.233Z,39.88
2023-02-11T15:43:49.945Z,40.07
2023-02-11T15:46:23.131Z,40.06
2023-02-11T15:48:54.475Z,41.18
2023-02-11T15:51:27.381Z,39.98
2023-02-11T15:53:57.448Z,40.92
2023-02-11T15:56:35.080Z,40.55
2023-02-11T15:59:17.091Z,38.97
2023-02-11T16:01:45.113Z,40.96
2023-02-11T16:04:27.068Z,40.60
2023-02-11T16:06:55.294Z,39.53
2023-02-11T16:09:36.601Z,41.05
2023-02-11T16:12:23.032Z,40.71
2023-02-11T16:14:49.613Z,40.66
2023-02-11T16:17:27.817Z,40.85
2023-02-11T16:19:55.508Z,40.63
2023-02-11T16:22:29.282Z,41.01
2023-02-11T16:24:59.735Z,40.24
2023-02-11T16:27:39.484Z,39.41
2023-02-11T16:30:23.668Z,39.69
2023-02-11T16:32:52.248Z,38.50
2023-02-11T16:35:18.742Z,38.30
2023-02-11T16:37:45.218Z,39.21
2023-02-11T16:40:12.999Z,40.19
2023-02-11T16:42:39.615Z,39.55
2023-02-11T16:45:06.741Z,38.93
2023-02-11T16:47:36.153Z,39.61
2023-02-11T16:50:03.026Z,39.01
2023-02-11T16:52:29.943Z,39.37
2023-02-11T16:54:56.512Z,40.02
2023-02-11T16:57:26.479Z,42.50
2023-02-11T16:59:54.653Z,42.86
2023-02-11T17:02:26.723Z,41.30
2023-02-11T17:04:54.811Z,44.82
2023-02-11T17:07:21.774Z,43.18
2023-02-11T17:09:48.254Z,42.68
2023-02-11T17:12:14.737Z,39.10
2023-02-11T17:14:41.229Z,39.29
2023-02-11T17:17:08.955Z,40.78
2023-02-11T17:19:35.444Z,40.90
2023-02-11T17:22:02.669Z,39.72
2023-02-11T17:24:29.158Z,40.03
2023-02-11T17:26:55.711Z,39.80
2023-02-11T17:29:25.840Z,40.43
2023-02-11T17:31:52.930Z,41.58
2023-02-11T17:34:21.144Z,40.72
2023-02-11T17:36:48.110Z,40.56
2023-02-11T17:39:16.877Z,40.79
2023-02-11T17:41:43.355Z,40.86
2023-02-11T17:44:11.070Z,39.70
2023-02-11T17:46:37.796Z,36.79
2023-02-11T17:49:04.954Z,37.41
2023-02-11T17:51:34.787Z,39.12
2023-02-11T17:54:04.465Z,39.29
2023-02-11T17:56:35.521Z,39.58
2023-02-11T17:59:02.997Z,39.10
2023-02-11T18:01:31.388Z,40.28
2023-02-11T18:03:57.964Z,39.97
2023-02-11T18:06:26.124Z,39.94
2023-02-11T18:08:55.615Z,39.97
2023-02-11T18:11:24.056Z,40.47
2023-02-11T18:13:51.354Z,40.75
2023-02-11T18:16:17.931Z,40.05
2023-02-11T18:18:44.888Z,39.68
2023-02-11T18:21:14.970Z,39.65
2023-02-11T18:23:41.689Z,40.19
2023-02-11T18:26:09.685Z,40.64
2023-02-11T18:28:36.666Z,40.80
2023-02-11T18:31:03.733Z,41.14
2023-02-11T18:33:30.858Z,40.94
2023-02-11T18:35:57.520Z,41.63
2023-02-11T18:38:24.686Z,42.29
2023-02-11T18:40:51.520Z,43.40
2023-02-11T18:43:20.040Z,43.70
2023-02-11T18:45:48.534Z,43.76
2023-02-11T18:48:16.283Z,43.88
2023-02-11T18:50:44.968Z,46.51
2023-02-11T18:53:13.485Z,52.58
2023-02-11T18:55:41.842Z,62.77
2023-02-11T18:58:08.594Z,54.67
2023-02-11T19:00:36.501Z,46.56
2023-02-11T19:03:03.171Z,44.68
2023-02-11T19:05:30.186Z,44.15
2023-02-11T19:07:56.674Z,43.95
2023-02-11T19:10:23.774Z,44.25
2023-02-11T19:12:53.683Z,46.40
2023-02-11T19:15:20.150Z,45.37
2023-02-11T19:17:46.634Z,44.85
2023-02-11T19:20:13.166Z,43.86
2023-02-11T19:22:39.678Z,43.42
2023-02-11T19:25:06.716Z,43.53
2023-02-11T19:27:33.918Z,43.84
2023-02-11T19:30:00.491Z,44.63
2023-02-11T19:32:29.812Z,45.66
2023-02-11T19:34:56.524Z,47.38
2023-02-11T19:37:23.249Z,47.60
2023-02-11T19:39:49.817Z,47.02
2023-02-11T19:42:18.671Z,47.81
2023-02-11T19:44:45.153Z,49.36
2023-02-11T19:47:11.759Z,48.86
2023-02-11T19:49:38.401Z,47.89
2023-02-11T19:52:04.901Z,48.39
2023-02-11T19:54:31.375Z,49.03
2023-02-11T19:56:58.182Z,48.91
2023-02-11T19:59:24.873Z,48.31
2023-02-11T20:01:51.494Z,48.42
2023-02-11T20:04:18.053Z,51.39
2023-02-11T20:06:44.790Z,50.65
2023-02-11T20:09:14.362Z,49.43
2023-02-11T20:11:41.764Z,61.70
2023-02-11T20:14:11.731Z,50.41
2023-02-11T20:16:48.070Z,47.36
2023-02-11T20:19:18.161Z,46.34
2023-02-11T20:21:47.760Z,46.23
2023-02-11T20:24:16.112Z,45.94
2023-02-11T20:26:42.690Z,46.73
2023-02-11T20:29:09.551Z,55.65
2023-02-11T20:31:36.482Z,56.62
2023-02-11T20:34:03.169Z,53.82
2023-02-11T20:36:33.037Z,64.36
2023-02-11T20:39:00.554Z,59.70
2023-02-11T20:41:30.401Z,52.55
2023-02-11T20:44:02.044Z,49.87
2023-02-11T20:46:31.116Z,49.18
2023-02-11T20:48:57.654Z,47.43
2023-02-11T20:51:28.092Z,46.24
2023-02-11T20:53:54.845Z,46.55
2023-02-11T20:56:26.337Z,45.99
2023-02-11T20:58:52.908Z,47.43
2023-02-11T21:01:29.141Z,47.58
2023-02-11T21:04:07.879Z,47.77
2023-02-11T21:06:37.807Z,48.07
2023-02-11T21:09:07.047Z,46.66
2023-02-11T21:11:34.053Z,46.19
2023-02-11T21:14:00.832Z,46.45
2023-02-11T21:16:27.718Z,45.81
2023-02-11T21:18:54.889Z,46.16
2023-02-11T21:21:21.522Z,46.18
2023-02-11T21:23:48.020Z,46.02
2023-02-11T21:26:15.525Z,44.69
2023-02-11T21:28:42.146Z,44.72
2023-02-11T21:31:09.047Z,48.53
2023-02-11T21:33:35.932Z,46.40
2023-02-11T21:36:04.524Z,44.82
2023-02-11T21:38:31.402Z,43.57
2023-02-11T21:41:03.558Z,42.86
2023-02-11T21:43:30.101Z,42.17
2023-02-11T21:45:57.356Z,41.89
2023-02-11T21:48:24.523Z,41.79
2023-02-11T21:50:51.302Z,40.79
2023-02-11T21:53:17.788Z,40.34
2023-02-11T21:55:44.265Z,40.13
2023-02-11T21:58:12.874Z,39.67
2023-02-11T22:00:39.935Z,39.23
2023-02-11T22:03:06.428Z,38.63
2023-02-11T22:05:32.891Z,36.61
2023-02-11T22:07:59.377Z,38.00
2023-02-11T22:10:26.039Z,37.56
2023-02-11T22:12:52.556Z,36.90
2023-02-11T22:15:19.175Z,36.73
2023-02-11T22:17:45.777Z,36.78
2023-02-11T22:20:12.300Z,35.87
2023-02-11T22:22:38.778Z,35.94
2023-02-11T22:25:05.791Z,34.90
2023-02-11T22:27:34.565Z,34.13
2023-02-11T22:30:01.051Z,34.40
2023-02-11T22:32:27.546Z,34.55
2023-02-11T22:34:54.028Z,34.16
2023-02-11T22:37:20.585Z,32.87
2023-02-11T22:39:47.146Z,33.31
2023-02-11T22:42:13.620Z,33.59
2023-02-11T22:44:40.117Z,33.77
2023-02-11T22:47:06.645Z,32.94
2023-02-11T22:49:33.145Z,32.90
2023-02-11T22:51:59.679Z,32.10
2023-02-11T22:54:26.415Z,31.47
2023-02-11T22:56:53.192Z,32.43
2023-02-11T22:59:21.103Z,32.05
2023-02-11T23:01:48.037Z,32.44
2023-02-11T23:04:16.309Z,33.29
2023-02-11T23:06:43.267Z,32.36
2023-02-11T23:09:11.137Z,32.17
2023-02-11T23:11:37.892Z,31.11
2023-02-11T23:14:04.466Z,30.98
2023-02-11T23:16:33.587Z,32.05
2023-02-11T23:19:02.324Z,32.93
2023-02-11T23:21:31.765Z,34.32
2023-02-11T23:24:04.622Z,36.10
2023-02-11T23:26:31.791Z,37.27
2023-02-11T23:28:59.524Z,35.97
2023-02-11T23:31:30.332Z,34.08
2023-02-11T23:33:56.905Z,34.03
2023-02-11T23:36:23.731Z,33.62
2023-02-11T23:38:50.876Z,33.94
2023-02-11T23:41:17.790Z,32.70
2023-02-11T23:43:44.359Z,31.71
2023-02-11T23:46:11.454Z,32.36
2023-02-11T23:48:38.047Z,32.40
2023-02-11T23:51:04.832Z,32.42
2023-02-11T23:53:31.393Z,32.35
2023-02-11T23:55:57.930Z,31.85
2023-02-11T23:58:24.535Z,31.65
